sensor_id;sensor_type;location;lat;lon;timestamp;pressure;altitude;pressure_sealevel;temperature;humidity
71559;BME280;59382;43.852;25.952;2023-07-24T03:43:15;101266.34;;;27.22;52.06
71559;BME280;59382;43.852;25.952;2023-07-24T03:45:41;101266.34;;;27.22;51.76
71559;BME280;59382;43.852;25.952;2023-07-24T03:48:07;101254.44;;;27.08;51.92
71559;BME280;59382;43.852;25.952;2023-07-24T03:50:33;101258.16;;;27.04;52.08
71559;BME280;59382;43.852;25.952;2023-07-24T03:52:58;101261.84;;;26.99;51.72
71559;BME280;59382;43.852;25.952;2023-07-24T03:55:23;101269.63;;;26.97;52.06
71559;BME280;59382;43.852;25.952;2023-07-24T03:57:49;101263.78;;;26.85;52.11
71559;BME280;59382;43.852;25.952;2023-07-24T04:00:14;101264.47;;;26.91;51.98
71559;BME280;59382;43.852;25.952;2023-07-24T04:02:40;101248.69;;;26.91;51.65
71559;BME280;59382;43.852;25.952;2023-07-24T04:05:06;101264.81;;;27.03;51.70
71559;BME280;59382;43.852;25.952;2023-07-24T04:07:31;101252.94;;;27.02;51.51
71559;BME280;59382;43.852;25.952;2023-07-24T04:09:57;101253.84;;;26.98;51.68
71559;BME280;59382;43.852;25.952;2023-07-24T04:12:22;101233.63;;;26.83;51.76
71559;BME280;59382;43.852;25.952;2023-07-24T04:14:48;101242.63;;;26.89;51.64
71559;BME280;59382;43.852;25.952;2023-07-24T04:17:14;101243.47;;;26.90;51.79
71559;BME280;59382;43.852;25.952;2023-07-24T04:19:40;101255.47;;;26.99;51.53
71559;BME280;59382;43.852;25.952;2023-07-24T04:22:06;101263.28;;;27.10;51.75
71559;BME280;59382;43.852;25.952;2023-07-24T04:24:31;101246.56;;;27.02;51.55
71559;BME280;59382;43.852;25.952;2023-07-24T04:26:57;101251.47;;;27.05;51.67
71559;BME280;59382;43.852;25.952;2023-07-24T04:29:23;101242.56;;;26.94;51.75
71559;BME280;59382;43.852;25.952;2023-07-24T04:31:51;101273.75;;;27.13;51.74
71559;BME280;59382;43.852;25.952;2023-07-24T04:34:16;101273.75;;;27.13;51.40
71559;BME280;59382;43.852;25.952;2023-07-24T04:36:41;101278.56;;;27.08;51.74
71559;BME280;59382;43.852;25.952;2023-07-24T04:39:07;101263.78;;;26.99;51.22
71559;BME280;59382;43.852;25.952;2023-07-24T04:41:32;101283.81;;;27.09;51.43
71559;BME280;59382;43.852;25.952;2023-07-24T04:43:58;101282.78;;;27.05;51.15
71559;BME280;59382;43.852;25.952;2023-07-24T04:46:23;101284.19;;;27.16;51.32
71559;BME280;59382;43.852;25.952;2023-07-24T04:48:49;101252.19;;;26.97;51.04
71559;BME280;59382;43.852;25.952;2023-07-24T04:51:14;101289.34;;;27.09;51.43
71559;BME280;59382;43.852;25.952;2023-07-24T04:53:40;101287.06;;;27.11;51.13
71559;BME280;59382;43.852;25.952;2023-07-24T04:56:05;101293.34;;;27.17;51.25
71559;BME280;59382;43.852;25.952;2023-07-24T04:58:31;101281.03;;;27.09;51.04
71559;BME280;59382;43.852;25.952;2023-07-24T05:00:56;101277.03;;;27.02;51.07
71559;BME280;59382;43.852;25.952;2023-07-24T05:03:22;101280.31;;;27.04;50.94
71559;BME280;59382;43.852;25.952;2023-07-24T05:05:48;101274.97;;;27.07;50.97
71559;BME280;59382;43.852;25.952;2023-07-24T05:08:14;101263.28;;;27.10;50.73
71559;BME280;59382;43.852;25.952;2023-07-24T05:10:40;101264.09;;;27.11;51.04
71559;BME280;59382;43.852;25.952;2023-07-24T05:13:05;101275.69;;;27.13;50.93
71559;BME280;59382;43.852;25.952;2023-07-24T05:15:31;101274.34;;;27.10;50.94
71559;BME280;59382;43.852;25.952;2023-07-24T05:17:56;101270.34;;;27.16;50.74
71559;BME280;59382;43.852;25.952;2023-07-24T05:20:22;101265.94;;;27.15;50.63
71559;BME280;59382;43.852;25.952;2023-07-24T05:22:47;101263.28;;;27.24;50.57
71559;BME280;59382;43.852;25.952;2023-07-24T05:25:13;101263.28;;;27.37;50.39
71559;BME280;59382;43.852;25.952;2023-07-24T05:27:38;101275.81;;;27.48;50.16
71559;BME280;59382;43.852;25.952;2023-07-24T05:30:05;101265.22;;;27.50;50.21
71559;BME280;59382;43.852;25.952;2023-07-24T05:32:31;101231.50;;;27.35;50.21
71559;BME280;59382;43.852;25.952;2023-07-24T05:34:56;101255.28;;;27.49;50.32
71559;BME280;59382;43.852;25.952;2023-07-24T05:37:22;101246.19;;;27.57;49.93
71559;BME280;59382;43.852;25.952;2023-07-24T05:39:47;101257.78;;;27.73;50.12
71559;BME280;59382;43.852;25.952;2023-07-24T05:42:13;101243.91;;;27.86;49.85
71559;BME280;59382;43.852;25.952;2023-07-24T05:44:38;101251.88;;;28.01;49.56
71559;BME280;59382;43.852;25.952;2023-07-24T05:47:04;101253.06;;;28.09;49.53
71559;BME280;59382;43.852;25.952;2023-07-24T05:49:29;101251.63;;;28.11;49.50
71559;BME280;59382;43.852;25.952;2023-07-24T05:51:55;101257.06;;;28.16;49.46
71559;BME280;59382;43.852;25.952;2023-07-24T05:54:22;101269.53;;;28.27;49.72
71559;BME280;59382;43.852;25.952;2023-07-24T05:56:48;101272.53;;;28.39;49.61
71559;BME280;59382;43.852;25.952;2023-07-24T05:59:13;101266.75;;;28.49;49.45
71559;BME280;59382;43.852;25.952;2023-07-24T06:01:39;101272.75;;;28.65;49.54
71559;BME280;59382;43.852;25.952;2023-07-24T06:04:04;101265.84;;;28.85;49.18
71559;BME280;59382;43.852;25.952;2023-07-24T06:06:32;101269.06;;;29.09;48.79
71559;BME280;59382;43.852;25.952;2023-07-24T06:08:58;101259.97;;;29.25;48.82
71559;BME280;59382;43.852;25.952;2023-07-24T06:11:23;101221.88;;;29.26;48.50
71559;BME280;59382;43.852;25.952;2023-07-24T06:13:49;101244.88;;;29.74;48.05
71559;BME280;59382;43.852;25.952;2023-07-24T06:16:15;101244.88;;;30.16;47.60
71559;BME280;59382;43.852;25.952;2023-07-24T06:18:40;101250.69;;;30.66;46.44
71559;BME280;59382;43.852;25.952;2023-07-24T06:21:08;101251.38;;;31.09;45.99
71559;BME280;59382;43.852;25.952;2023-07-24T06:23:33;101251.50;;;31.50;45.43
71559;BME280;59382;43.852;25.952;2023-07-24T06:25:59;101245.34;;;31.86;44.67
71559;BME280;59382;43.852;25.952;2023-07-24T06:28:24;101220.44;;;32.01;44.13
71559;BME280;59382;43.852;25.952;2023-07-24T06:30:52;101246.00;;;32.45;43.82
71559;BME280;59382;43.852;25.952;2023-07-24T06:33:18;101256.41;;;32.68;43.43
71559;BME280;59382;43.852;25.952;2023-07-24T06:35:43;101250.97;;;32.84;43.39
71559;BME280;59382;43.852;25.952;2023-07-24T06:38:12;101255.31;;;33.05;42.79
71559;BME280;59382;43.852;25.952;2023-07-24T06:40:38;101255.91;;;33.23;42.59
71559;BME280;59382;43.852;25.952;2023-07-24T06:43:03;101248.47;;;33.39;42.10
71559;BME280;59382;43.852;25.952;2023-07-24T06:45:29;101235.97;;;33.36;42.24
71559;BME280;59382;43.852;25.952;2023-07-24T06:47:55;101236.81;;;33.49;41.63
71559;BME280;59382;43.852;25.952;2023-07-24T06:50:23;101246.22;;;33.68;41.41
71559;BME280;59382;43.852;25.952;2023-07-24T06:52:49;101254.00;;;33.87;40.83
71559;BME280;59382;43.852;25.952;2023-07-24T06:55:25;101248.81;;;34.01;40.30
71559;BME280;59382;43.852;25.952;2023-07-24T06:57:50;101256.38;;;34.13;40.14
71559;BME280;59382;43.852;25.952;2023-07-24T07:00:16;101256.66;;;34.23;40.11
71559;BME280;59382;43.852;25.952;2023-07-24T07:02:42;101248.47;;;34.30;39.95
71559;BME280;59382;43.852;25.952;2023-07-24T07:05:08;101244.25;;;34.36;39.74
71559;BME280;59382;43.852;25.952;2023-07-24T07:07:33;101245.91;;;34.37;39.51
71559;BME280;59382;43.852;25.952;2023-07-24T07:09:59;101238.16;;;34.46;39.67
71559;BME280;59382;43.852;25.952;2023-07-24T07:12:24;101234.16;;;34.47;39.40
71559;BME280;59382;43.852;25.952;2023-07-24T07:14:50;101231.28;;;34.32;39.14
71559;BME280;59382;43.852;25.952;2023-07-24T07:17:15;101227.75;;;34.19;39.39
71559;BME280;59382;43.852;25.952;2023-07-24T07:19:41;101237.72;;;34.32;39.35
71559;BME280;59382;43.852;25.952;2023-07-24T07:22:06;101235.59;;;34.41;38.92
71559;BME280;59382;43.852;25.952;2023-07-24T07:24:32;101235.78;;;34.48;38.97
71559;BME280;59382;43.852;25.952;2023-07-24T07:26:57;101230.81;;;34.57;38.77
71559;BME280;59382;43.852;25.952;2023-07-24T07:29:23;101225.41;;;34.64;38.53
71559;BME280;59382;43.852;25.952;2023-07-24T07:31:48;101219.72;;;34.76;38.09
71559;BME280;59382;43.852;25.952;2023-07-24T07:34:14;101229.72;;;34.89;37.98
71559;BME280;59382;43.852;25.952;2023-07-24T07:36:40;101221.00;;;34.94;37.57
71559;BME280;59382;43.852;25.952;2023-07-24T07:39:05;101204.34;;;34.70;37.19
71559;BME280;59382;43.852;25.952;2023-07-24T07:41:31;101195.13;;;34.54;37.47
71559;BME280;59382;43.852;25.952;2023-07-24T07:43:57;101217.44;;;34.66;37.49
71559;BME280;59382;43.852;25.952;2023-07-24T07:46:22;101216.72;;;34.69;37.26
71559;BME280;59382;43.852;25.952;2023-07-24T07:48:48;101193.78;;;34.64;37.60
71559;BME280;59382;43.852;25.952;2023-07-24T07:51:15;101205.06;;;34.83;37.07
71559;BME280;59382;43.852;25.952;2023-07-24T07:53:40;101212.88;;;34.89;36.78
71559;BME280;59382;43.852;25.952;2023-07-24T07:56:06;101192.59;;;34.80;36.92
71559;BME280;59382;43.852;25.952;2023-07-24T07:58:32;101175.66;;;34.61;36.99
71559;BME280;59382;43.852;25.952;2023-07-24T08:00:58;101196.50;;;34.76;36.76
71559;BME280;59382;43.852;25.952;2023-07-24T08:03:33;101176.13;;;34.63;36.61
71559;BME280;59382;43.852;25.952;2023-07-24T08:06:02;101189.22;;;34.75;36.69
71559;BME280;59382;43.852;25.952;2023-07-24T08:08:28;101178.59;;;34.80;36.36
71559;BME280;59382;43.852;25.952;2023-07-24T08:10:54;101188.72;;;35.00;36.13
71559;BME280;59382;43.852;25.952;2023-07-24T08:13:20;101188.44;;;35.05;35.73
71559;BME280;59382;43.852;25.952;2023-07-24T08:15:46;101189.50;;;35.16;35.57
71559;BME280;59382;43.852;25.952;2023-07-24T08:18:11;101183.97;;;35.20;35.13
71559;BME280;59382;43.852;25.952;2023-07-24T08:20:37;101170.22;;;35.15;35.06
71559;BME280;59382;43.852;25.952;2023-07-24T08:23:04;101180.97;;;35.28;34.77
71559;BME280;59382;43.852;25.952;2023-07-24T08:25:32;101174.72;;;35.35;34.89
71559;BME280;59382;43.852;25.952;2023-07-24T08:27:58;101165.13;;;35.36;34.90
71559;BME280;59382;43.852;25.952;2023-07-24T08:30:26;101160.78;;;35.38;34.16
71559;BME280;59382;43.852;25.952;2023-07-24T08:32:52;101164.47;;;35.42;34.03
71559;BME280;59382;43.852;25.952;2023-07-24T08:35:18;101162.13;;;35.44;33.53
71559;BME280;59382;43.852;25.952;2023-07-24T08:37:44;101172.78;;;35.54;33.29
71559;BME280;59382;43.852;25.952;2023-07-24T08:40:10;101164.72;;;35.53;33.05
71559;BME280;59382;43.852;25.952;2023-07-24T08:42:39;101170.56;;;35.63;32.14
71559;BME280;59382;43.852;25.952;2023-07-24T08:45:11;101169.81;;;35.66;31.70
71559;BME280;59382;43.852;25.952;2023-07-24T08:47:38;101165.19;;;35.74;31.83
71559;BME280;59382;43.852;25.952;2023-07-24T08:50:07;101163.63;;;35.77;31.71
71559;BME280;59382;43.852;25.952;2023-07-24T08:52:35;101168.66;;;35.87;31.03
71559;BME280;59382;43.852;25.952;2023-07-24T08:55:02;101158.75;;;35.93;30.68
71559;BME280;59382;43.852;25.952;2023-07-24T08:57:29;101159.56;;;35.93;30.70
71559;BME280;59382;43.852;25.952;2023-07-24T08:59:54;101158.59;;;36.05;30.52
71559;BME280;59382;43.852;25.952;2023-07-24T09:02:20;101154.16;;;36.04;30.45
71559;BME280;59382;43.852;25.952;2023-07-24T09:04:45;101155.50;;;36.10;30.68
71559;BME280;59382;43.852;25.952;2023-07-24T09:07:11;101157.09;;;36.11;30.20
71559;BME280;59382;43.852;25.952;2023-07-24T09:09:36;101154.28;;;36.11;30.55
71559;BME280;59382;43.852;25.952;2023-07-24T09:12:05;101138.94;;;36.05;30.26
71559;BME280;59382;43.852;25.952;2023-07-24T09:14:30;101138.34;;;35.96;30.69
71559;BME280;59382;43.852;25.952;2023-07-24T09:17:07;101131.78;;;35.88;30.32
71559;BME280;59382;43.852;25.952;2023-07-24T09:19:37;101128.19;;;35.88;30.67
71559;BME280;59382;43.852;25.952;2023-07-24T09:22:19;101133.34;;;35.86;30.76
71559;BME280;59382;43.852;25.952;2023-07-24T09:25:04;101118.44;;;35.82;30.35
71559;BME280;59382;43.852;25.952;2023-07-24T09:27:30;101121.75;;;35.87;30.83
71559;BME280;59382;43.852;25.952;2023-07-24T09:29:56;101129.06;;;35.92;30.56
71559;BME280;59382;43.852;25.952;2023-07-24T09:32:26;101125.50;;;35.95;30.40
71559;BME280;59382;43.852;25.952;2023-07-24T09:34:52;101124.88;;;36.05;30.55
71559;BME280;59382;43.852;25.952;2023-07-24T09:37:30;101122.38;;;36.00;30.37
71559;BME280;59382;43.852;25.952;2023-07-24T09:39:56;101096.09;;;35.89;30.69
71559;BME280;59382;43.852;25.952;2023-07-24T09:42:31;101116.91;;;36.07;30.39
71559;BME280;59382;43.852;25.952;2023-07-24T09:44:58;101110.47;;;36.06;29.94
71559;BME280;59382;43.852;25.952;2023-07-24T09:47:24;101105.66;;;36.07;30.44
71559;BME280;59382;43.852;25.952;2023-07-24T09:49:53;101106.53;;;36.11;29.86
71559;BME280;59382;43.852;25.952;2023-07-24T09:52:19;101100.91;;;36.11;29.83
71559;BME280;59382;43.852;25.952;2023-07-24T09:55:10;101093.34;;;36.15;29.33
71559;BME280;59382;43.852;25.952;2023-07-24T09:57:37;101085.66;;;36.12;29.50
71559;BME280;59382;43.852;25.952;2023-07-24T10:00:03;101097.81;;;36.16;29.52
71559;BME280;59382;43.852;25.952;2023-07-24T10:02:29;101082.88;;;36.12;29.50
71559;BME280;59382;43.852;25.952;2023-07-24T10:04:55;101089.69;;;36.11;29.29
71559;BME280;59382;43.852;25.952;2023-07-24T10:07:22;101085.25;;;36.10;29.48
71559;BME280;59382;43.852;25.952;2023-07-24T10:09:49;101069.00;;;36.00;28.92
71559;BME280;59382;43.852;25.952;2023-07-24T10:12:19;101079.81;;;35.98;28.53
71559;BME280;59382;43.852;25.952;2023-07-24T10:14:48;101073.31;;;35.94;28.75
71559;BME280;59382;43.852;25.952;2023-07-24T10:17:14;101066.81;;;35.90;28.54
71559;BME280;59382;43.852;25.952;2023-07-24T10:19:42;101068.44;;;35.91;28.59
71559;BME280;59382;43.852;25.952;2023-07-24T10:22:18;101049.84;;;35.83;28.98
71559;BME280;59382;43.852;25.952;2023-07-24T10:24:48;101057.97;;;35.88;29.30
71559;BME280;59382;43.852;25.952;2023-07-24T10:27:14;101022.72;;;35.71;28.72
71559;BME280;59382;43.852;25.952;2023-07-24T10:29:39;101055.44;;;35.83;28.84
71559;BME280;59382;43.852;25.952;2023-07-24T10:32:25;101053.72;;;35.78;28.19
71559;BME280;59382;43.852;25.952;2023-07-24T10:35:06;101044.06;;;35.76;27.80
71559;BME280;59382;43.852;25.952;2023-07-24T10:37:34;101031.50;;;35.69;27.76
71559;BME280;59382;43.852;25.952;2023-07-24T10:40:00;101048.03;;;35.74;27.86
71559;BME280;59382;43.852;25.952;2023-07-24T10:42:26;101045.69;;;35.77;27.59
71559;BME280;59382;43.852;25.952;2023-07-24T10:45:10;101030.69;;;35.69;25.71
71559;BME280;59382;43.852;25.952;2023-07-24T10:47:36;101033.13;;;35.70;27.15
71559;BME280;59382;43.852;25.952;2023-07-24T10:50:02;101023.84;;;35.66;27.42
71559;BME280;59382;43.852;25.952;2023-07-24T10:52:31;101022.19;;;35.65;27.54
71559;BME280;59382;43.852;25.952;2023-07-24T10:55:02;101031.94;;;35.71;27.37
71559;BME280;59382;43.852;25.952;2023-07-24T10:57:29;101020.56;;;35.64;27.58
71559;BME280;59382;43.852;25.952;2023-07-24T10:59:55;101018.97;;;35.63;27.13
71559;BME280;59382;43.852;25.952;2023-07-24T11:02:21;100988.13;;;35.44;27.21
71559;BME280;59382;43.852;25.952;2023-07-24T11:04:47;101003.03;;;35.48;27.59
71559;BME280;59382;43.852;25.952;2023-07-24T11:07:13;101001.78;;;35.46;27.22
71559;BME280;59382;43.852;25.952;2023-07-24T11:09:40;101001.84;;;35.49;27.32
71559;BME280;59382;43.852;25.952;2023-07-24T11:12:13;100992.97;;;35.47;27.70
71559;BME280;59382;43.852;25.952;2023-07-24T11:14:52;100991.34;;;35.46;27.38
71559;BME280;59382;43.852;25.952;2023-07-24T11:17:21;100992.22;;;35.50;27.41
71559;BME280;59382;43.852;25.952;2023-07-24T11:19:47;100989.38;;;35.47;27.56
71559;BME280;59382;43.852;25.952;2023-07-24T11:22:13;100980.44;;;35.41;27.72
71559;BME280;59382;43.852;25.952;2023-07-24T11:24:46;100990.47;;;35.42;27.41
71559;BME280;59382;43.852;25.952;2023-07-24T11:27:13;100966.84;;;35.24;27.67
71559;BME280;59382;43.852;25.952;2023-07-24T11:29:41;100986.34;;;35.36;27.63
71559;BME280;59382;43.852;25.952;2023-07-24T11:32:07;100983.81;;;35.31;27.37
71559;BME280;59382;43.852;25.952;2023-07-24T11:34:33;100975.75;;;35.30;27.47
71559;BME280;59382;43.852;25.952;2023-07-24T11:36:59;100977.78;;;35.29;27.49
71559;BME280;59382;43.852;25.952;2023-07-24T11:39:25;100974.16;;;35.29;27.16
71559;BME280;59382;43.852;25.952;2023-07-24T11:41:53;100972.38;;;35.21;27.17
71559;BME280;59382;43.852;25.952;2023-07-24T11:44:28;100976.44;;;35.23;27.00
71559;BME280;59382;43.852;25.952;2023-07-24T11:47:02;100981.97;;;35.20;26.89
71559;BME280;59382;43.852;25.952;2023-07-24T11:49:29;100973.06;;;35.14;27.08
71559;BME280;59382;43.852;25.952;2023-07-24T11:52:05;100978.22;;;35.12;26.95
71559;BME280;59382;43.852;25.952;2023-07-24T11:54:34;100977.75;;;35.10;26.89
71559;BME280;59382;43.852;25.952;2023-07-24T11:56:59;100972.97;;;35.11;27.32
71559;BME280;59382;43.852;25.952;2023-07-24T11:59:26;100967.72;;;35.09;27.20
71559;BME280;59382;43.852;25.952;2023-07-24T12:01:52;100959.22;;;35.06;26.92
71559;BME280;59382;43.852;25.952;2023-07-24T12:04:18;100943.09;;;34.99;27.26
71559;BME280;59382;43.852;25.952;2023-07-24T12:06:44;100958.44;;;35.05;27.53
71559;BME280;59382;43.852;25.952;2023-07-24T12:09:11;100952.84;;;35.05;27.40
71559;BME280;59382;43.852;25.952;2023-07-24T12:11:41;100951.19;;;35.04;27.28
71559;BME280;59382;43.852;25.952;2023-07-24T12:14:07;100947.97;;;35.02;27.13
71559;BME280;59382;43.852;25.952;2023-07-24T12:16:34;100938.66;;;34.98;27.05
71559;BME280;59382;43.852;25.952;2023-07-24T12:19:00;100940.72;;;35.01;27.23
71559;BME280;59382;43.852;25.952;2023-07-24T12:21:25;100946.78;;;35.03;27.33
71559;BME280;59382;43.852;25.952;2023-07-24T12:23:51;100943.09;;;34.99;26.96
71559;BME280;59382;43.852;25.952;2023-07-24T12:26:17;100913.09;;;34.84;27.04
71559;BME280;59382;43.852;25.952;2023-07-24T12:28:46;100929.34;;;34.94;26.73
71559;BME280;59382;43.852;25.952;2023-07-24T12:31:12;100931.72;;;34.92;26.70
71559;BME280;59382;43.852;25.952;2023-07-24T12:33:37;100928.56;;;34.94;26.78
71559;BME280;59382;43.852;25.952;2023-07-24T12:36:03;100926.19;;;34.96;26.85
71559;BME280;59382;43.852;25.952;2023-07-24T12:38:29;100926.13;;;34.92;26.90
71559;BME280;59382;43.852;25.952;2023-07-24T12:40:55;100914.81;;;34.89;27.07
71559;BME280;59382;43.852;25.952;2023-07-24T12:43:21;100906.31;;;34.85;27.17
71559;BME280;59382;43.852;25.952;2023-07-24T12:45:46;100922.97;;;34.94;27.03
71559;BME280;59382;43.852;25.952;2023-07-24T12:48:12;100916.53;;;34.93;26.82
71559;BME280;59382;43.852;25.952;2023-07-24T12:50:37;100906.91;;;34.94;26.84
71559;BME280;59382;43.852;25.952;2023-07-24T12:53:02;100910.91;;;34.93;26.80
71559;BME280;59382;43.852;25.952;2023-07-24T12:55:28;100903.31;;;34.94;26.53
71559;BME280;59382;43.852;25.952;2023-07-24T12:57:55;100905.31;;;34.93;26.86
71559;BME280;59382;43.852;25.952;2023-07-24T13:00:21;100896.28;;;34.84;26.80
71559;BME280;59382;43.852;25.952;2023-07-24T13:02:47;100890.66;;;34.84;26.51
71559;BME280;59382;43.852;25.952;2023-07-24T13:05:13;100882.91;;;34.78;26.69
71559;BME280;59382;43.852;25.952;2023-07-24T13:07:38;100901.25;;;34.91;26.73
71559;BME280;59382;43.852;25.952;2023-07-24T13:10:07;100888.41;;;34.90;26.69
71559;BME280;59382;43.852;25.952;2023-07-24T13:12:32;100879.94;;;34.86;27.29
71559;BME280;59382;43.852;25.952;2023-07-24T13:14:58;100885.16;;;34.88;27.11
71559;BME280;59382;43.852;25.952;2023-07-24T13:17:23;100881.09;;;34.85;27.30
71559;BME280;59382;43.852;25.952;2023-07-24T13:19:50;100874.59;;;34.81;27.37
71559;BME280;59382;43.852;25.952;2023-07-24T13:22:15;100877.84;;;34.83;27.27
71559;BME280;59382;43.852;25.952;2023-07-24T13:24:41;100874.66;;;34.85;27.36
71559;BME280;59382;43.852;25.952;2023-07-24T13:27:06;100878.63;;;34.84;27.08
71559;BME280;59382;43.852;25.952;2023-07-24T13:29:32;100869.06;;;34.85;27.50
71559;BME280;59382;43.852;25.952;2023-07-24T13:31:57;100856.16;;;34.80;27.76
71559;BME280;59382;43.852;25.952;2023-07-24T13:34:26;100875.94;;;34.87;28.44
71559;BME280;59382;43.852;25.952;2023-07-24T13:36:55;100856.06;;;34.77;28.19
71559;BME280;59382;43.852;25.952;2023-07-24T13:39:21;100862.50;;;34.77;28.03
71559;BME280;59382;43.852;25.952;2023-07-24T13:41:46;100865.31;;;34.77;27.95
71559;BME280;59382;43.852;25.952;2023-07-24T13:44:12;100850.84;;;34.75;27.90
71559;BME280;59382;43.852;25.952;2023-07-24T13:46:38;100851.66;;;34.76;27.66
71559;BME280;59382;43.852;25.952;2023-07-24T13:49:04;100848.03;;;34.75;28.14
71559;BME280;59382;43.852;25.952;2023-07-24T13:51:30;100839.91;;;34.70;28.24
71559;BME280;59382;43.852;25.952;2023-07-24T13:53:56;100843.25;;;34.76;28.38
71559;BME280;59382;43.852;25.952;2023-07-24T13:56:21;100823.81;;;34.67;28.61
71559;BME280;59382;43.852;25.952;2023-07-24T13:58:49;100827.06;;;34.69;28.59
71559;BME280;59382;43.852;25.952;2023-07-24T14:01:14;100813.44;;;34.68;28.67
71559;BME280;59382;43.852;25.952;2023-07-24T14:03:39;100812.63;;;34.67;28.76
71559;BME280;59382;43.852;25.952;2023-07-24T14:06:05;100814.38;;;34.75;28.41
71559;BME280;59382;43.852;25.952;2023-07-24T14:08:30;100828.13;;;34.80;28.54
71559;BME280;59382;43.852;25.952;2023-07-24T14:10:56;100806.72;;;34.72;28.56
71559;BME280;59382;43.852;25.952;2023-07-24T14:13:21;100775.59;;;34.58;28.76
71559;BME280;59382;43.852;25.952;2023-07-24T14:15:47;100808.84;;;34.79;28.57
71559;BME280;59382;43.852;25.952;2023-07-24T14:18:12;100792.69;;;34.72;28.42
71559;BME280;59382;43.852;25.952;2023-07-24T14:20:38;100796.75;;;34.75;28.14
71559;BME280;59382;43.852;25.952;2023-07-24T14:23:06;100777.50;;;34.73;28.38
71559;BME280;59382;43.852;25.952;2023-07-24T14:25:32;100784.13;;;34.84;28.27
71559;BME280;59382;43.852;25.952;2023-07-24T14:27:58;100796.97;;;34.85;28.29
71559;BME280;59382;43.852;25.952;2023-07-24T14:30:23;100785.75;;;34.85;28.42
71559;BME280;59382;43.852;25.952;2023-07-24T14:32:48;100784.22;;;34.88;27.96
71559;BME280;59382;43.852;25.952;2023-07-24T14:35:16;100782.22;;;34.88;27.70
71559;BME280;59382;43.852;25.952;2023-07-24T14:37:41;100772.03;;;34.80;27.83
71559;BME280;59382;43.852;25.952;2023-07-24T14:40:10;100775.25;;;34.82;27.06
71559;BME280;59382;43.852;25.952;2023-07-24T14:42:35;100777.69;;;34.84;27.12
71559;BME280;59382;43.852;25.952;2023-07-24T14:45:01;100772.19;;;34.87;26.57
71559;BME280;59382;43.852;25.952;2023-07-24T14:47:28;100766.78;;;34.98;26.09
71559;BME280;59382;43.852;25.952;2023-07-24T14:49:54;100765.97;;;34.97;25.59
71559;BME280;59382;43.852;25.952;2023-07-24T14:52:19;100748.16;;;34.86;25.86
71559;BME280;59382;43.852;25.952;2023-07-24T14:54:48;100763.53;;;34.96;25.13
71559;BME280;59382;43.852;25.952;2023-07-24T14:57:14;100754.63;;;34.90;25.38
71559;BME280;59382;43.852;25.952;2023-07-24T14:59:39;100753.75;;;34.86;25.10
71559;BME280;59382;43.852;25.952;2023-07-24T15:02:05;100756.22;;;34.91;25.04
71559;BME280;59382;43.852;25.952;2023-07-24T15:04:30;100756.22;;;34.91;25.13
71559;BME280;59382;43.852;25.952;2023-07-24T15:06:56;100756.22;;;34.91;24.98
71559;BME280;59382;43.852;25.952;2023-07-24T15:09:22;100756.09;;;34.84;25.07
71559;BME280;59382;43.852;25.952;2023-07-24T15:11:47;100751.97;;;34.78;24.85
71559;BME280;59382;43.852;25.952;2023-07-24T15:14:13;100754.41;;;34.80;24.67
71559;BME280;59382;43.852;25.952;2023-07-24T15:16:39;100742.69;;;34.74;24.69
71559;BME280;59382;43.852;25.952;2023-07-24T15:19:04;100743.19;;;34.80;24.79
71559;BME280;59382;43.852;25.952;2023-07-24T15:21:30;100736.75;;;34.79;24.71
71559;BME280;59382;43.852;25.952;2023-07-24T15:23:55;100743.25;;;34.83;24.52
71559;BME280;59382;43.852;25.952;2023-07-24T15:26:21;100732.78;;;34.80;24.68
71559;BME280;59382;43.852;25.952;2023-07-24T15:28:46;100731.91;;;34.76;24.75
71559;BME280;59382;43.852;25.952;2023-07-24T15:31:12;100732.03;;;34.83;25.05
71559;BME280;59382;43.852;25.952;2023-07-24T15:33:37;100710.53;;;34.68;25.53
71559;BME280;59382;43.852;25.952;2023-07-24T15:36:03;100728.72;;;34.78;26.00
71559;BME280;59382;43.852;25.952;2023-07-24T15:38:29;100721.44;;;34.73;26.34
71559;BME280;59382;43.852;25.952;2023-07-24T15:40:55;100694.66;;;34.53;26.54
71559;BME280;59382;43.852;25.952;2023-07-24T15:43:20;100715.69;;;34.66;26.74
71559;BME280;59382;43.852;25.952;2023-07-24T15:45:49;100712.03;;;34.62;26.47
71559;BME280;59382;43.852;25.952;2023-07-24T15:48:15;100709.59;;;34.61;26.91
71559;BME280;59382;43.852;25.952;2023-07-24T15:50:40;100704.75;;;34.58;26.65
71559;BME280;59382;43.852;25.952;2023-07-24T15:53:06;100701.00;;;34.50;27.10
71559;BME280;59382;43.852;25.952;2023-07-24T15:55:31;100692.88;;;34.45;27.74
71559;BME280;59382;43.852;25.952;2023-07-24T15:57:57;100705.72;;;34.46;28.38
71559;BME280;59382;43.852;25.952;2023-07-24T16:00:24;100712.38;;;34.38;29.21
71559;BME280;59382;43.852;25.952;2023-07-24T16:02:50;100711.75;;;34.29;29.47
71559;BME280;59382;43.852;25.952;2023-07-24T16:05:20;100714.84;;;34.24;29.91
71559;BME280;59382;43.852;25.952;2023-07-24T16:07:47;100705.13;;;34.18;29.97
71559;BME280;59382;43.852;25.952;2023-07-24T16:10:14;100702.31;;;34.18;29.56
71559;BME280;59382;43.852;25.952;2023-07-24T16:12:40;100693.78;;;34.11;28.31
71559;BME280;59382;43.852;25.952;2023-07-24T16:15:08;100688.63;;;34.13;27.88
71559;BME280;59382;43.852;25.952;2023-07-24T16:17:33;100692.44;;;34.24;27.59
71559;BME280;59382;43.852;25.952;2023-07-24T16:19:59;100690.00;;;34.23;27.01